createdAt,value
2023-02-12T00:00:03.629Z,67.03
2023-02-12T00:05:17.479Z,67.51
2023-02-12T00:10:20.258Z,67.26
2023-02-12T00:15:22.665Z,67.81
2023-02-12T00:20:25.129Z,67.60
2023-02-12T00:25:27.799Z,68.46
2023-02-12T00:30:30.282Z,68.10
2023-02-12T00:35:32.850Z,67.73
2023-02-12T00:40:35.505Z,67.57
2023-02-12T00:45:38.541Z,67.92
2023-02-12T00:50:44.116Z,68.00
2023-02-12T00:55:46.824Z,67.75
2023-02-12T01:00:52.928Z,67.66
2023-02-12T01:05:55.949Z,67.69
2023-02-12T01:11:01.184Z,67.35
2023-02-12T01:16:17.346Z,67.89
2023-02-12T01:21:22.815Z,66.93
2023-02-12T01:26:27.124Z,67.44
2023-02-12T01:31:33.057Z,66.63
2023-02-12T01:36:36.238Z,66.98
2023-02-12T01:41:46.162Z,66.64
2023-02-12T01:46:57.179Z,66.40
2023-02-12T01:52:08.691Z,66.37
2023-02-12T01:57:15.168Z,66.18
2023-02-12T02:02:18.461Z,65.53
2023-02-12T02:07:21.194Z,65.15
2023-02-12T02:12:43.579Z,64.90
2023-02-12T02:17:46.144Z,65.36
2023-02-12T02:23:28.274Z,65.23
2023-02-12T02:29:04.500Z,65.16
2023-02-12T02:34:29.651Z,65.33
2023-02-12T02:39:44.118Z,65.06
2023-02-12T02:44:53.530Z,64.35
2023-02-12T02:50:09.825Z,64.95
2023-02-12T02:55:17.404Z,64.36
2023-02-12T03:00:43.496Z,64.62
2023-02-12T03:05:53.676Z,64.16
2023-02-12T03:11:04.228Z,64.16
2023-02-12T03:16:15.906Z,64.59
2023-02-12T03:21:54.408Z,63.14
2023-02-12T03:27:09.203Z,63.82
2023-02-12T03:32:34.227Z,63.69
2023-02-12T03:37:42.563Z,64.02
2023-02-12T03:43:00.428Z,64.06
2023-02-12T03:48:10.755Z,63.53
2023-02-12T03:53:13.718Z,62.91
2023-02-12T03:58:21.684Z,63.53
2023-02-12T04:03:24.967Z,63.25
2023-02-12T04:08:29.869Z,62.60
2023-02-12T04:14:16.185Z,62.63
2023-02-12T04:19:44.300Z,62.64
2023-02-12T04:25:15.892Z,63.01
2023-02-12T04:30:29.076Z,62.81
2023-02-12T04:35:50.164Z,63.12
2023-02-12T04:40:53.343Z,62.42
2023-02-12T04:45:56.929Z,62.59
2023-02-12T04:51:01.245Z,62.33
2023-02-12T04:56:03.929Z,62.75
2023-02-12T05:01:07.063Z,62.47
2023-02-12T05:06:10.143Z,63.13
2023-02-12T05:11:12.745Z,63.36
2023-02-12T05:16:20.325Z,63.07
2023-02-12T05:21:22.988Z,63.02
2023-02-12T05:26:25.524Z,62.85
2023-02-12T05:31:28.250Z,62.91
2023-02-12T05:36:30.850Z,62.08
2023-02-12T05:41:37.034Z,62.17
2023-02-12T05:46:39.798Z,62.06
2023-02-12T05:51:42.376Z,62.34
2023-02-12T05:56:48.454Z,61.59
2023-02-12T06:01:52.384Z,60.57
2023-02-12T06:06:56.513Z,61.38
2023-02-12T06:11:59.129Z,60.72
2023-02-12T06:17:01.888Z,60.58
2023-02-12T06:22:07.332Z,60.54
2023-02-12T06:27:09.899Z,60.78
2023-02-12T06:32:13.989Z,61.42
2023-02-12T06:37:16.525Z,61.39
2023-02-12T06:42:19.163Z,60.44
2023-02-12T06:47:21.783Z,60.35
2023-02-12T06:52:24.303Z,60.53
2023-02-12T06:57:26.783Z,60.84
2023-02-12T07:02:30.263Z,60.57
2023-02-12T07:07:32.835Z,59.91
2023-02-12T07:12:35.468Z,59.76
2023-02-12T07:17:38.127Z,59.65
2023-02-12T07:22:40.880Z,59.64
2023-02-12T07:27:46.433Z,59.49
2023-02-12T07:32:49.094Z,59.41
2023-02-12T07:37:51.614Z,58.95
2023-02-12T07:42:57.136Z,58.48
2023-02-12T07:47:59.777Z,58.54
2023-02-12T07:53:02.936Z,57.02
2023-02-12T07:58:06.008Z,56.72
2023-02-12T08:03:13.921Z,56.18
2023-02-12T08:08:16.463Z,56.41
2023-02-12T08:13:19.127Z,56.41
2023-02-12T08:18:21.699Z,56.48
2023-02-12T08:23:24.366Z,56.90
2023-02-12T08:28:26.992Z,56.91
2023-02-12T08:33:32.272Z,56.57
2023-02-12T08:38:34.913Z,56.73
2023-02-12T08:43:40.819Z,56.53
2023-02-12T08:48:43.983Z,57.39
2023-02-12T08:53:53.103Z,56.50
2023-02-12T08:58:57.804Z,56.47
2023-02-12T09:04:01.907Z,56.47
2023-02-12T09:09:04.839Z,56.43
2023-02-12T09:14:09.595Z,56.79
2023-02-12T09:19:14.342Z,56.75
2023-02-12T09:24:16.788Z,56.29
2023-02-12T09:29:19.244Z,56.20
2023-02-12T09:34:22.049Z,57.08
2023-02-12T09:39:24.560Z,56.47
2023-02-12T09:44:37.275Z,55.86
2023-02-12T09:50:04.957Z,55.69
2023-02-12T09:55:15.152Z,55.90
2023-02-12T10:00:32.017Z,55.93
2023-02-12T10:05:45.110Z,55.44
2023-02-12T10:11:01.449Z,56.73
2023-02-12T10:16:19.414Z,56.03
2023-02-12T10:21:38.160Z,56.36
2023-02-12T10:26:49.546Z,57.39
2023-02-12T10:37:42.058Z,58.40
2023-02-12T10:42:50.852Z,58.67
2023-02-12T10:48:04.290Z,59.64
2023-02-12T10:53:12.511Z,58.71
2023-02-12T10:58:24.417Z,59.15
2023-02-12T11:03:37.791Z,59.98
2023-02-12T11:08:41.061Z,59.13
2023-02-12T11:14:06.807Z,59.39
2023-02-12T11:19:21.627Z,59.33
2023-02-12T11:24:27.118Z,60.63
2023-02-12T11:29:30.031Z,60.65
2023-02-12T11:34:32.638Z,62.63
2023-02-12T11:39:38.953Z,63.68
2023-02-12T11:44:56.773Z,65.58
2023-02-12T11:50:05.929Z,65.90
2023-02-12T11:55:32.299Z,67.06
2023-02-12T12:00:52.595Z,69.17
2023-02-12T12:05:59.925Z,69.43
2023-02-12T12:11:13.056Z,70.30
2023-02-12T12:17:01.080Z,70.12
2023-02-12T12:22:27.949Z,70.33
2023-02-12T12:28:03.351Z,71.18
2023-02-12T12:33:17.918Z,70.95
2023-02-12T12:38:46.495Z,71.44
2023-02-12T12:44:14.442Z,71.86
2023-02-12T12:49:23.152Z,72.74
2023-02-12T12:54:47.123Z,72.80
2023-02-12T13:00:12.995Z,73.57
2023-02-12T13:05:36.725Z,73.81
2023-02-12T13:10:54.687Z,74.57
2023-02-12T13:16:16.850Z,75.09
2023-02-12T13:21:28.898Z,75.31
2023-02-12T13:26:53.376Z,74.67
2023-02-12T13:32:05.906Z,75.66
2023-02-12T13:37:20.802Z,75.30
2023-02-12T13:42:26.485Z,75.87
2023-02-12T13:48:04.677Z,76.27
2023-02-12T13:53:34.695Z,75.84
2023-02-12T13:58:40.031Z,77.05
2023-02-12T14:03:44.422Z,77.07
2023-02-12T14:09:14.246Z,77.40
2023-02-12T14:14:39.509Z,77.81
2023-02-12T14:19:50.746Z,78.06
2023-02-12T14:24:55.047Z,78.26
2023-02-12T14:30:31.462Z,78.52
2023-02-12T14:35:40.237Z,79.49
2023-02-12T14:40:47.311Z,79.05
2023-02-12T14:45:50.092Z,79.43
2023-02-12T14:50:56.149Z,79.30
2023-02-12T14:56:02.544Z,79.25
2023-02-12T15:01:07.309Z,79.26
2023-02-12T15:06:28.413Z,79.67
2023-02-12T15:11:38.390Z,79.35
2023-02-12T15:16:53.352Z,79.69
2023-02-12T15:21:57.145Z,79.54
2023-02-12T15:27:01.272Z,79.33
2023-02-12T15:32:08.107Z,80.06
2023-02-12T15:37:30.065Z,79.74
2023-02-12T15:42:39.493Z,79.58
2023-02-12T15:47:43.401Z,79.67
2023-02-12T15:52:47.788Z,79.79
2023-02-12T15:57:52.593Z,79.93
2023-02-12T16:02:55.444Z,80.35
2023-02-12T16:08:00.196Z,80.55
2023-02-12T16:13:03.013Z,80.42
2023-02-12T16:18:05.919Z,81.63
2023-02-12T16:23:09.787Z,81.84
2023-02-12T16:28:22.810Z,82.18
2023-02-12T16:33:40.699Z,82.64
2023-02-12T16:38:49.668Z,82.82
2023-02-12T16:44:17.787Z,82.97
2023-02-12T16:49:23.429Z,82.95
2023-02-12T16:54:28.915Z,83.06
2023-02-12T16:59:31.792Z,83.20
2023-02-12T17:04:34.373Z,83.91
2023-02-12T17:09:36.900Z,83.43
2023-02-12T17:14:39.407Z,83.53
2023-02-12T17:19:42.044Z,83.17
2023-02-12T17:24:46.660Z,83.07
2023-02-12T17:29:49.173Z,82.97
2023-02-12T17:34:51.947Z,83.13
2023-02-12T17:39:57.558Z,84.00
2023-02-12T17:45:00.256Z,83.80
2023-02-12T17:50:02.878Z,82.98
2023-02-12T17:55:07.163Z,83.25
2023-02-12T18:00:11.931Z,83.03
2023-02-12T18:05:15.054Z,83.42
2023-02-12T18:10:17.682Z,83.30
2023-02-12T18:15:22.651Z,82.70
2023-02-12T18:20:25.191Z,82.44
2023-02-12T18:25:27.897Z,82.56
2023-02-12T18:30:30.765Z,82.77
2023-02-12T18:35:33.945Z,82.99
2023-02-12T18:40:40.656Z,82.75
2023-02-12T18:45:43.283Z,83.25
2023-02-12T18:50:46.198Z,82.76
2023-02-12T18:55:52.160Z,83.23
2023-02-12T19:00:54.994Z,82.66
2023-02-12T19:06:04.252Z,82.47
2023-02-12T19:11:11.114Z,82.35
2023-02-12T19:16:16.209Z,81.52
2023-02-12T19:21:19.224Z,81.72
2023-02-12T19:26:22.713Z,81.76
2023-02-12T19:31:31.048Z,81.24
2023-02-12T19:36:36.880Z,80.60
2023-02-12T19:41:42.684Z,81.03
2023-02-12T19:46:45.855Z,80.83
2023-02-12T19:51:49.313Z,79.80
2023-02-12T19:56:53.767Z,79.33
2023-02-12T20:01:56.838Z,79.67
2023-02-12T20:06:59.629Z,79.14
2023-02-12T20:12:04.698Z,79.28
2023-02-12T20:17:07.078Z,78.82
2023-02-12T20:22:09.572Z,78.38
2023-02-12T20:27:13.248Z,78.28
2023-02-12T20:32:18.621Z,77.42
2023-02-12T20:37:21.212Z,77.55
2023-02-12T20:42:23.765Z,77.61
2023-02-12T20:47:29.123Z,77.66
2023-02-12T20:52:32.373Z,77.04
2023-02-12T20:57:35.060Z,77.13
2023-02-12T21:02:37.836Z,76.81
2023-02-12T21:07:42.757Z,77.04
2023-02-12T21:12:45.643Z,76.30
2023-02-12T21:17:48.124Z,76.23
2023-02-12T21:22:53.614Z,76.44
2023-02-12T21:27:57.230Z,75.43
2023-02-12T21:32:59.707Z,75.74
2023-02-12T21:38:02.242Z,75.43
2023-02-12T21:43:07.784Z,75.02
2023-02-12T21:48:10.202Z,75.24
2023-02-12T21:53:12.691Z,74.86
2023-02-12T21:58:15.490Z,75.38
2023-02-12T22:03:19.763Z,74.80
2023-02-12T22:08:24.111Z,74.83
2023-02-12T22:13:26.550Z,74.17
2023-02-12T22:18:29.021Z,74.23
2023-02-12T22:23:32.042Z,73.46
2023-02-12T22:28:35.390Z,73.43
2023-02-12T22:33:37.938Z,73.78
2023-02-12T22:38:41.269Z,72.86
2023-02-12T22:43:44.316Z,71.40
2023-02-12T22:48:47.683Z,71.42
2023-02-12T22:53:50.532Z,70.77
2023-02-12T22:58:58.183Z,71.03
2023-02-12T23:04:00.777Z,70.99
2023-02-12T23:09:05.382Z,70.71
2023-02-12T23:14:07.842Z,71.43
2023-02-12T23:19:12.230Z,71.87
2023-02-12T23:24:15.311Z,71.66
2023-02-12T23:29:17.882Z,71.99
2023-02-12T23:34:20.428Z,71.99
2023-02-12T23:39:22.836Z,72.41
2023-02-12T23:44:28.113Z,73.05
2023-02-12T23:49:30.558Z,72.85
2023-02-12T23:54:33.022Z,73.35
2023-02-12T23:59:36.587Z,73.65
